Thyra — DD8258 — position and weather

sailwx.info

Track history (hours):
 
Tides and Currents Weather Stations Pressure Air Temp Water Temp Dewpoint Dewpoint Depression Visibility Wind Speed Wind Dir Waves Ship Positions

Thyra

Last reported at 2018-Jun-16 15:32 UTC. Time now 2018-Jun-19 10:55 UTC.
Position N 54°01' E 009°18'.

Length 12 m.

Type: Pleasure craft. MMSI: 211650380.

Date/timePositionNaut miles runAvg speedWind from/ knotsBaromVisibWave heightAir tempDewpointWater temp
2018-Jun-16 15:32N 54°01' E 009°18'1 6.9
2018-Jun-16 15:28N 54°01' E 009°18'3 6.8
2018-Jun-16 14:59N 53°58' E 009°15'4 7.0
2018-Jun-16 14:29N 53°55' E 009°11'2 4.1
2018-Jun-16 13:59N 53°54' E 009°09'0 0.7
2018-Jun-16 13:30N 53°53' E 009°09'0 0.2
2018-Jun-16 13:00N 53°53' E 009°09'3 4.8
2018-Jun-16 12:29N 53°53' E 009°05'5 9.5
2018-Jun-16 11:58N 53°51' E 008°57'5 9.5
2018-Jun-16 11:29N 53°51' E 008°49'5 9.2
2018-Jun-16 10:56N 53°53' E 008°42'121 6.8
2018-Jun-15 17:01N 53°28' E 005°21'0 7.2
2018-Jun-15 17:00N 53°28' E 005°21'3 6.8
2018-Jun-15 16:30N 53°27' E 005°16'3 6.4
2018-Jun-15 16:00N 53°26' E 005°11'3 6.0
2018-Jun-15 15:29N 53°25' E 005°06'3 6.7
2018-Jun-15 15:00N 53°23' E 005°01'4 6.8
2018-Jun-15 14:29N 53°21' E 004°57'19 5.4
2018-Jun-15 10:57N 53°05' E 004°39'6 5.2
2018-Jun-15 09:48N 52°60' E 004°34'2 5.5
2018-Jun-15 09:26N 52°58' E 004°34'3 5.7
2018-Jun-15 08:58N 52°55' E 004°33'3 6.0
2018-Jun-15 08:28N 52°52' E 004°32'3 6.5
2018-Jun-15 08:00N 52°49' E 004°32'3 6.7
2018-Jun-15 07:30N 52°46' E 004°31'4 6.7
2018-Jun-15 06:49N 52°42' E 004°30'3 7.1
2018-Jun-15 06:23N 52°38' E 004°29'3 7.3
2018-Jun-15 05:59N 52°36' E 004°28'4 7.6
2018-Jun-15 05:29N 52°32' E 004°27'4 7.7
2018-Jun-15 04:59N 52°28' E 004°25'4 7.8
2018-Jun-15 04:29N 52°24' E 004°23'4 7.9
2018-Jun-15 04:00N 52°21' E 004°22'4 8.3
2018-Jun-15 03:30N 52°17' E 004°20'4 8.8
2018-Jun-15 03:01N 52°13' E 004°18'4 8.9
2018-Jun-15 02:31N 52°08' E 004°16'2 4.4
2018-Jun-15 01:57N 52°06' E 004°16'0 0.0
2018-Jun-15 01:30N 52°06' E 004°16'0 0.0
2018-Jun-15 01:00N 52°06' E 004°16'0 0.0
2018-Jun-15 00:24N 52°06' E 004°16'0 0.0
2018-Jun-15 00:00N 52°06' E 004°16'0 0.0
2018-Jun-14 23:27N 52°06' E 004°16'0 0.0
2018-Jun-14 22:57N 52°06' E 004°16'0 0.0
2018-Jun-14 22:30N 52°06' E 004°16'0 0.0
2018-Jun-14 21:57N 52°06' E 004°16'0 0.0
2018-Jun-14 21:30N 52°06' E 004°16'0 0.0
2018-Jun-14 20:57N 52°06' E 004°16'0 0.0
2018-Jun-14 20:30N 52°06' E 004°16'0 0.0
2018-Jun-14 20:00N 52°06' E 004°16'0 0.0
2018-Jun-14 19:30N 52°06' E 004°16'0 0.0
2018-Jun-14 19:00N 52°06' E 004°16'0 0.0
2018-Jun-14 18:30N 52°06' E 004°16'0 0.0
2018-Jun-14 18:00N 52°06' E 004°16'0 0.0
2018-Jun-14 17:30N 52°06' E 004°16'0 0.0
2018-Jun-14 16:48N 52°06' E 004°16'0 0.0
2018-Jun-14 16:30N 52°06' E 004°16'0 0.0
2018-Jun-14 16:00N 52°06' E 004°16'0 0.0
2018-Jun-14 15:27N 52°06' E 004°16'0 0.0
2018-Jun-14 15:00N 52°06' E 004°16'0 0.0
2018-Jun-14 14:30N 52°06' E 004°16'0 0.0
2018-Jun-14 14:00N 52°06' E 004°16'0 0.0
2018-Jun-14 13:30N 52°06' E 004°16'0 0.0
2018-Jun-14 12:54N 52°06' E 004°16'0 0.0
2018-Jun-14 12:30N 52°06' E 004°16'0 0.0
2018-Jun-14 11:57N 52°06' E 004°16'0 0.0
2018-Jun-14 11:30N 52°06' E 004°16'0 0.0
2018-Jun-14 11:00N 52°06' E 004°16'0 0.0
2018-Jun-14 10:27N 52°06' E 004°16'0 0.0
2018-Jun-14 09:57N 52°06' E 004°16'0 0.0
2018-Jun-14 09:30N 52°06' E 004°16'0 0.0
2018-Jun-14 09:00N 52°06' E 004°16'0 0.0
2018-Jun-14 08:30N 52°06' E 004°16'0 0.0
2018-Jun-14 08:00N 52°06' E 004°16'0 0.0
2018-Jun-14 07:30N 52°06' E 004°16'0 0.0
2018-Jun-14 07:00N 52°06' E 004°16'0 0.0
2018-Jun-14 06:30N 52°06' E 004°16'0 0.0
2018-Jun-14 05:57N 52°06' E 004°16'0 0.0
2018-Jun-14 05:30N 52°06' E 004°16'0 0.0
2018-Jun-14 05:00N 52°06' E 004°16'0 0.0
2018-Jun-14 04:18N 52°06' E 004°16'0 0.0
2018-Jun-14 03:54N 52°06' E 004°16'0 0.0
2018-Jun-14 03:27N 52°06' E 004°16'0 0.0
2018-Jun-14 02:54N 52°06' E 004°16'0 0.0
2018-Jun-14 02:24N 52°06' E 004°16'0 0.0
2018-Jun-14 01:45N 52°06' E 004°16'0 0.0
2018-Jun-14 01:30N 52°06' E 004°16'0 0.0
2018-Jun-14 00:54N 52°06' E 004°16'0 0.0
2018-Jun-14 00:27N 52°06' E 004°16'0 0.0
2018-Jun-14 00:00N 52°06' E 004°16'0 0.0
2018-Jun-13 23:21N 52°06' E 004°16'0 0.0
2018-Jun-13 23:00N 52°06' E 004°16'0 0.0
2018-Jun-13 22:30N 52°06' E 004°16'0 0.0
2018-Jun-13 22:00N 52°06' E 004°16'0 0.0
2018-Jun-13 21:30N 52°06' E 004°16'0 0.0
2018-Jun-13 20:57N 52°06' E 004°16'0 0.0
2018-Jun-13 20:30N 52°06' E 004°16'0 0.0
2018-Jun-13 20:00N 52°06' E 004°16'0 0.0
2018-Jun-13 19:27N 52°06' E 004°16'0 0.0
2018-Jun-13 18:59N 52°06' E 004°16'2 4.5
2018-Jun-13 18:31N 52°05' E 004°13'2 4.1
2018-Jun-13 18:00N 52°04' E 004°10'3 6.3
2018-Jun-13 17:30N 52°03' E 004°06'3 6.5
2018-Jun-13 17:01N 52°01' E 004°01'3 5.8
2018-Jun-13 16:29N 51°59' E 003°57'4 7.7
2018-Jun-13 15:58N 51°56' E 003°52'8 7.7
2018-Jun-13 15:00N 51°51' E 003°43'28 8.2
2018-Jun-13 11:33N 51°31' E 003°12'1 7.2
2018-Jun-13 11:22N 51°30' E 003°11'3 7.2
2018-Jun-13 10:56N 51°27' E 003°08'3 6.8
2018-Jun-13 10:30N 51°25' E 003°05'3 5.8
2018-Jun-13 09:56N 51°23' E 003°01'3 4.8
2018-Jun-13 09:25N 51°21' E 002°58'2 5.0
2018-Jun-13 09:00N 51°20' E 002°56'2 4.3
2018-Jun-13 08:30N 51°18' E 002°54'2 4.3
2018-Jun-13 08:00N 51°16' E 002°51'2 4.3
2018-Jun-13 07:27N 51°15' E 002°48'2 4.3
2018-Jun-13 06:56N 51°14' E 002°45'2 4.1
2018-Jun-13 06:30N 51°12' E 002°44'2 3.5
2018-Jun-13 06:01N 51°11' E 002°43'2 4.2
2018-Jun-13 05:30N 51°09' E 002°44'0 0.8
2018-Jun-13 05:00N 51°08' E 002°45'0 0.0
2018-Jun-13 04:30N 51°08' E 002°45'0 0.0
2018-Jun-13 04:00N 51°08' E 002°45'0 0.0
2018-Jun-13 03:30N 51°08' E 002°45'0 0.0
2018-Jun-13 03:00N 51°08' E 002°45'0 0.0
2018-Jun-13 02:30N 51°08' E 002°45'0 0.0
2018-Jun-13 01:57N 51°08' E 002°45'0 0.0
2018-Jun-13 01:30N 51°08' E 002°45'0 0.0
2018-Jun-13 01:00N 51°08' E 002°45'0 0.0
2018-Jun-13 00:30N 51°08' E 002°45'0 0.0
2018-Jun-12 23:57N 51°08' E 002°45'0 0.0
2018-Jun-12 23:30N 51°08' E 002°45'0 0.0
2018-Jun-12 23:00N 51°08' E 002°45'0 0.0
2018-Jun-12 22:30N 51°08' E 002°45'0 0.0
2018-Jun-12 22:00N 51°08' E 002°45'0 0.0
2018-Jun-12 21:27N 51°08' E 002°45'0 0.0
2018-Jun-12 21:00N 51°08' E 002°45'0 0.0
2018-Jun-12 20:30N 51°08' E 002°45'0 0.0
2018-Jun-12 20:00N 51°08' E 002°45'0 0.0
2018-Jun-12 19:26N 51°08' E 002°45'0 0.0
2018-Jun-12 18:59N 51°08' E 002°45'0 0.0
2018-Jun-12 18:29N 51°08' E 002°45'0 0.0
2018-Jun-12 17:53N 51°08' E 002°45'0 0.0
2018-Jun-12 17:29N 51°08' E 002°45'0 0.0
2018-Jun-12 16:59N 51°08' E 002°45'0 0.0
2018-Jun-12 16:22N 51°08' E 002°45'0 0.0
2018-Jun-12 15:52N 51°08' E 002°45'0 0.0
2018-Jun-12 15:16N 51°08' E 002°45'0 0.0
2018-Jun-12 14:58N 51°08' E 002°45'0 0.0
2018-Jun-12 14:18N 51°08' E 002°45'0 0.0
2018-Jun-12 14:01N 51°08' E 002°45'0 0.0
2018-Jun-12 13:25N 51°08' E 002°45'0 0.0
2018-Jun-12 12:57N 51°08' E 002°45'0 0.0
2018-Jun-12 12:25N 51°08' E 002°45'0 0.0
2018-Jun-12 12:00N 51°08' E 002°45'0 0.0
2018-Jun-12 11:30N 51°08' E 002°45'0 0.0
2018-Jun-12 11:00N 51°08' E 002°45'0 0.0
2018-Jun-12 10:27N 51°08' E 002°45'0 0.0
2018-Jun-12 10:00N 51°08' E 002°45'0 0.0
2018-Jun-12 09:30N 51°08' E 002°45'0 0.0
2018-Jun-12 08:57N 51°08' E 002°45'0 0.0
2018-Jun-12 08:30N 51°08' E 002°45'0 0.0
2018-Jun-12 08:00N 51°08' E 002°45'0 0.0
2018-Jun-12 07:27N 51°08' E 002°45'0 0.0
2018-Jun-12 07:00N 51°08' E 002°45'0 0.0
2018-Jun-12 06:30N 51°08' E 002°45'0 0.0
2018-Jun-12 06:00N 51°08' E 002°45'0 0.0
2018-Jun-12 05:30N 51°08' E 002°45'0 0.0
2018-Jun-12 05:00N 51°08' E 002°45'0 0.0
2018-Jun-12 04:30N 51°08' E 002°45'0 0.0
2018-Jun-12 03:39N 51°08' E 002°45'0 0.0
2018-Jun-12 03:27N 51°08' E 002°45'0 0.0
2018-Jun-12 03:00N 51°08' E 002°45'0 0.0
2018-Jun-12 02:21N 51°08' E 002°45'0 0.0
2018-Jun-12 01:57N 51°08' E 002°45'0 0.0
2018-Jun-12 01:21N 51°08' E 002°45'0 0.0
2018-Jun-12 00:57N 51°08' E 002°45'0 0.0
2018-Jun-12 00:21N 51°08' E 002°45'0 0.0
2018-Jun-11 23:45N 51°08' E 002°45'0 0.0
2018-Jun-11 23:30N 51°08' E 002°45'0 0.0
2018-Jun-11 22:57N 51°08' E 002°45'0 0.0
2018-Jun-11 22:30N 51°08' E 002°45'0 0.0
2018-Jun-11 22:00N 51°08' E 002°45'0 0.0
2018-Jun-11 21:30N 51°08' E 002°45'0 0.0
2018-Jun-11 20:57N 51°08' E 002°45'0 0.0
2018-Jun-11 20:30N 51°08' E 002°45'0 0.0
2018-Jun-11 20:00N 51°08' E 002°45'0 0.0
2018-Jun-11 19:30N 51°08' E 002°45'0 0.0
2018-Jun-11 19:00N 51°08' E 002°45'0 0.0
2018-Jun-11 18:30N 51°08' E 002°45'0 0.0
2018-Jun-11 18:00N 51°08' E 002°45'0 0.0
2018-Jun-11 17:30N 51°08' E 002°45'0 0.0
2018-Jun-11 17:00N 51°08' E 002°45'0 0.0
2018-Jun-11 16:18N 51°08' E 002°45'0 0.0
2018-Jun-11 16:00N 51°08' E 002°45'0 0.0
2018-Jun-11 15:30N 51°08' E 002°45'0 0.0
2018-Jun-11 14:57N 51°08' E 002°45'0 0.0
2018-Jun-11 14:30N 51°08' E 002°45'0 0.0
2018-Jun-11 14:00N 51°08' E 002°45'0 0.0
2018-Jun-11 13:25N 51°08' E 002°45'0 0.0
2018-Jun-11 12:55N 51°08' E 002°45'0 0.0
2018-Jun-11 12:28N 51°08' E 002°45'0 0.0
2018-Jun-11 11:55N 51°08' E 002°45'0 0.0
2018-Jun-11 11:30N 51°08' E 002°45'0 0.0
2018-Jun-11 10:57N 51°08' E 002°45'0 0.0
2018-Jun-11 10:27N 51°08' E 002°45'0 0.0
2018-Jun-11 10:00N 51°08' E 002°45'0 0.0
2018-Jun-11 09:27N 51°08' E 002°45'0 0.0
2018-Jun-11 09:00N 51°08' E 002°45'0 0.0
2018-Jun-11 08:30N 51°08' E 002°45'0 0.0
2018-Jun-11 07:54N 51°08' E 002°45'0 0.0
2018-Jun-11 07:27N 51°08' E 002°45'0 0.0
2018-Jun-11 07:00N 51°08' E 002°45'0 0.0
2018-Jun-11 06:30N 51°08' E 002°45'0 0.0
2018-Jun-11 06:00N 51°08' E 002°45'0 0.0
2018-Jun-11 05:30N 51°08' E 002°45'0 0.0
2018-Jun-11 04:57N 51°08' E 002°45'0 0.0
2018-Jun-11 04:24N 51°08' E 002°45'0 0.0
2018-Jun-11 04:00N 51°08' E 002°45'0 0.0
2018-Jun-11 03:30N 51°08' E 002°45'0 0.0
2018-Jun-11 02:57N 51°08' E 002°45'0 0.0
2018-Jun-11 02:27N 51°08' E 002°45'0 0.0
2018-Jun-11 02:00N 51°08' E 002°45'0 0.0
2018-Jun-11 01:30N 51°08' E 002°45'0 0.0
2018-Jun-11 00:57N 51°08' E 002°45'0 0.0
2018-Jun-11 00:30N 51°08' E 002°45'0 0.0
2018-Jun-11 00:00N 51°08' E 002°45'0 0.0
2018-Jun-10 23:30N 51°08' E 002°45'0 0.0
2018-Jun-10 23:00N 51°08' E 002°45'0 0.0
2018-Jun-10 22:30N 51°08' E 002°45'0 0.0
2018-Jun-10 22:00N 51°08' E 002°45'0 0.0
2018-Jun-10 21:30N 51°08' E 002°45'0 0.0
2018-Jun-10 21:00N 51°08' E 002°45'0 0.0
2018-Jun-10 20:27N 51°08' E 002°45'0 0.0
2018-Jun-10 20:00N 51°08' E 002°45'0 0.4
2018-Jun-10 19:30N 51°09' E 002°44'3 5.2
2018-Jun-10 19:00N 51°10' E 002°41'3 5.7
2018-Jun-10 18:30N 51°09' E 002°36'3 5.1
2018-Jun-10 17:59N 51°08' E 002°32'3 4.8
2018-Jun-10 17:27N 51°06' E 002°30'2 4.6
2018-Jun-10 17:00N 51°05' E 002°27'2 4.8
2018-Jun-10 16:29N 51°04' E 002°23'2 4.8
2018-Jun-10 15:59N 51°04' E 002°19'3 4.9
2018-Jun-10 15:24N 51°04' E 002°15'2 4.9
2018-Jun-10 15:00N 51°03' E 002°12'3 4.8
2018-Jun-10 14:28N 51°03' E 002°08'5 4.9
2018-Jun-10 13:27N 51°02' E 001°60'91 4.7
2018-Jun-09 18:21N 49°60' E 000°17'2 6.1
2018-Jun-09 17:59N 49°59' E 000°13'3 6.5
2018-Jun-09 17:30N 49°59' E 000°08'3 6.5
2018-Jun-09 17:00N 49°58' E 000°03'3 6.5
2018-Jun-09 16:30N 49°57' W 000°01'3 6.3
2018-Jun-09 15:58N 49°56' W 000°07'3 6.0
2018-Jun-09 15:29N 49°56' W 000°11'5 5.4
2018-Jun-09 14:30N 49°56' W 000°19'3 5.1
2018-Jun-09 14:00N 49°55' W 000°23'2 4.9
2018-Jun-09 13:30N 49°55' W 000°27'2 4.7
2018-Jun-09 13:00N 49°55' W 000°31'2 4.5
2018-Jun-09 12:27N 49°55' W 000°34'4 3.9
2018-Jun-09 11:27N 49°54' W 000°41'4 2.6
2018-Jun-09 10:03N 49°54' W 000°46'0 2.0
2018-Jun-09 09:56N 49°54' W 000°46'4 2.5
2018-Jun-09 08:07N 49°53' W 000°53'1 3.2
2018-Jun-09 07:47N 49°53' W 000°55'3 3.4
2018-Jun-09 06:51N 49°52' W 000°60'1 3.8
2018-Jun-09 06:29N 49°51' W 001°02'2 4.0
2018-Jun-09 05:59N 49°50' W 001°05'2 4.8
2018-Jun-09 05:29N 49°49' W 001°08'3 5.3
2018-Jun-09 05:00N 49°48' W 001°11'3 6.0
2018-Jun-09 04:30N 49°47' W 001°16'3 6.8
2018-Jun-09 04:00N 49°46' W 001°21'4 7.4
2018-Jun-09 03:30N 49°45' W 001°26'4 7.7
2018-Jun-09 03:00N 49°43' W 001°31'4 7.3
2018-Jun-09 02:30N 49°41' W 001°36'2 4.1
2018-Jun-09 01:59N 49°39' W 001°37'0 0.0
2018-Jun-09 01:29N 49°39' W 001°37'0 0.0
2018-Jun-09 00:58N 49°39' W 001°37'0 0.0
2018-Jun-09 00:28N 49°39' W 001°37'0 0.0
2018-Jun-08 23:58N 49°39' W 001°37'0 0.0
2018-Jun-08 23:28N 49°39' W 001°37'0 0.0
2018-Jun-08 22:58N 49°39' W 001°37'0 0.0
2018-Jun-08 22:28N 49°39' W 001°37'0 0.0
2018-Jun-08 21:58N 49°39' W 001°37'0 0.0
2018-Jun-08 21:28N 49°39' W 001°37'0 0.0
2018-Jun-08 20:55N 49°39' W 001°37'0 0.0
2018-Jun-08 20:28N 49°39' W 001°37'0 0.0
2018-Jun-08 19:58N 49°39' W 001°37'0 0.0
2018-Jun-08 19:28N 49°39' W 001°37'0 0.0
2018-Jun-08 18:58N 49°39' W 001°37'0 0.0
2018-Jun-08 18:28N 49°39' W 001°37'0 0.0
2018-Jun-08 17:58N 49°39' W 001°37'0 0.0
2018-Jun-08 17:28N 49°39' W 001°37'0 0.0
2018-Jun-08 17:01N 49°39' W 001°37'0 0.0
2018-Jun-08 16:30N 49°39' W 001°37'0 0.0
2018-Jun-08 16:00N 49°39' W 001°37'0 0.0
2018-Jun-08 15:27N 49°39' W 001°37'0 0.0
2018-Jun-08 15:00N 49°39' W 001°37'0 0.0
2018-Jun-08 14:30N 49°39' W 001°37'0 0.0
2018-Jun-08 14:00N 49°39' W 001°37'0 0.0
2018-Jun-08 13:30N 49°39' W 001°37'0 0.0
2018-Jun-08 13:00N 49°39' W 001°37'0 0.0
2018-Jun-08 12:30N 49°39' W 001°37'0 0.0
2018-Jun-08 12:00N 49°39' W 001°37'0 0.0
2018-Jun-08 11:30N 49°39' W 001°37'0 0.0
2018-Jun-08 11:00N 49°39' W 001°37'0 0.0
2018-Jun-08 10:30N 49°39' W 001°37'0 0.0
2018-Jun-08 10:00N 49°39' W 001°37'0 0.0
2018-Jun-08 09:30N 49°39' W 001°37'0 0.0
2018-Jun-08 09:00N 49°39' W 001°37'0 0.0
2018-Jun-08 08:30N 49°39' W 001°37'0 0.0
2018-Jun-08 08:00N 49°39' W 001°37'0 0.0
2018-Jun-08 07:30N 49°39' W 001°37'0 0.0
2018-Jun-08 07:00N 49°39' W 001°37'0 0.0
2018-Jun-08 06:30N 49°39' W 001°37'0 0.0
2018-Jun-08 06:00N 49°39' W 001°37'0 0.0
2018-Jun-08 05:29N 49°39' W 001°37'0 0.0
2018-Jun-08 04:59N 49°39' W 001°37'0 0.0
2018-Jun-08 04:29N 49°39' W 001°37'0 0.0
2018-Jun-08 03:59N 49°39' W 001°37'0 0.0
2018-Jun-08 03:29N 49°39' W 001°37'0 0.0
2018-Jun-08 02:59N 49°39' W 001°37'0 0.0
2018-Jun-08 02:29N 49°39' W 001°37'0 0.0
2018-Jun-08 01:59N 49°39' W 001°37'0 0.0
2018-Jun-08 01:29N 49°39' W 001°37'0 0.0
2018-Jun-08 00:59N 49°39' W 001°37'0 0.0
2018-Jun-08 00:29N 49°39' W 001°37'0 0.0
2018-Jun-07 23:59N 49°39' W 001°37'0 0.0
2018-Jun-07 23:29N 49°39' W 001°37'0 0.0
2018-Jun-07 22:58N 49°39' W 001°37'0 0.0
2018-Jun-07 22:28N 49°39' W 001°37'0 0.0
2018-Jun-07 21:58N 49°39' W 001°37'0 0.0
2018-Jun-07 21:28N 49°39' W 001°37'0 0.0
2018-Jun-07 20:58N 49°39' W 001°37'0 0.0
2018-Jun-07 20:28N 49°39' W 001°37'0 0.0
2018-Jun-07 19:58N 49°39' W 001°37'0 0.0
2018-Jun-07 19:28N 49°39' W 001°37'0 0.0
2018-Jun-07 18:58N 49°39' W 001°37'0 0.0
2018-Jun-07 18:28N 49°39' W 001°37'0 0.0
2018-Jun-07 17:58N 49°39' W 001°37'0 0.0
2018-Jun-07 17:28N 49°39' W 001°37'0 0.0
2018-Jun-07 16:58N 49°39' W 001°37'0 0.0
2018-Jun-07 16:28N 49°39' W 001°37'0 0.0
2018-Jun-07 15:58N 49°39' W 001°37'0 0.0
2018-Jun-07 15:28N 49°39' W 001°37'0 0.0
2018-Jun-07 15:01N 49°39' W 001°37'2 3.0
2018-Jun-07 14:30N 49°40' W 001°38'3 6.0
2018-Jun-07 14:00N 49°42' W 001°42'4 7.0
2018-Jun-07 13:30N 49°43' W 001°47'3 7.0
2018-Jun-07 13:00N 49°44' W 001°52'  
Track history (hours):
 
Tides and Currents Weather Stations Pressure Air Temp Water Temp Dewpoint Dewpoint Depression Visibility Wind Speed Wind Dir Waves Ship Positions

Thyra

Last reported at 2018-Jun-16 15:32 UTC. Time now 2018-Jun-19 10:55 UTC.
Position N 54°01' E 009°18'.

Length 12 m.

Type: Pleasure craft. MMSI: 211650380.

Date/timePositionNaut miles runAvg speedWind from/ knotsBaromVisibWave heightAir tempDewpointWater temp
2018-Jun-16 15:32N 54°01' E 009°18'1 6.9
2018-Jun-16 15:28N 54°01' E 009°18'3 6.8
2018-Jun-16 14:59N 53°58' E 009°15'4 7.0
2018-Jun-16 14:29N 53°55' E 009°11'2 4.1
2018-Jun-16 13:59N 53°54' E 009°09'0 0.7
2018-Jun-16 13:30N 53°53' E 009°09'0 0.2
2018-Jun-16 13:00N 53°53' E 009°09'3 4.8
2018-Jun-16 12:29N 53°53' E 009°05'5 9.5
2018-Jun-16 11:58N 53°51' E 008°57'5 9.5
2018-Jun-16 11:29N 53°51' E 008°49'5 9.2
2018-Jun-16 10:56N 53°53' E 008°42'121 6.8
2018-Jun-15 17:01N 53°28' E 005°21'0 7.2
2018-Jun-15 17:00N 53°28' E 005°21'3 6.8
2018-Jun-15 16:30N 53°27' E 005°16'3 6.4
2018-Jun-15 16:00N 53°26' E 005°11'3 6.0
2018-Jun-15 15:29N 53°25' E 005°06'3 6.7
2018-Jun-15 15:00N 53°23' E 005°01'4 6.8
2018-Jun-15 14:29N 53°21' E 004°57'19 5.4
2018-Jun-15 10:57N 53°05' E 004°39'6 5.2
2018-Jun-15 09:48N 52°60' E 004°34'2 5.5
2018-Jun-15 09:26N 52°58' E 004°34'3 5.7
2018-Jun-15 08:58N 52°55' E 004°33'3 6.0
2018-Jun-15 08:28N 52°52' E 004°32'3 6.5
2018-Jun-15 08:00N 52°49' E 004°32'3 6.7
2018-Jun-15 07:30N 52°46' E 004°31'4 6.7
2018-Jun-15 06:49N 52°42' E 004°30'3 7.1
2018-Jun-15 06:23N 52°38' E 004°29'3 7.3
2018-Jun-15 05:59N 52°36' E 004°28'4 7.6
2018-Jun-15 05:29N 52°32' E 004°27'4 7.7
2018-Jun-15 04:59N 52°28' E 004°25'4 7.8
2018-Jun-15 04:29N 52°24' E 004°23'4 7.9
2018-Jun-15 04:00N 52°21' E 004°22'4 8.3
2018-Jun-15 03:30N 52°17' E 004°20'4 8.8
2018-Jun-15 03:01N 52°13' E 004°18'4 8.9
2018-Jun-15 02:31N 52°08' E 004°16'2 4.4
2018-Jun-15 01:57N 52°06' E 004°16'0 0.0
2018-Jun-15 01:30N 52°06' E 004°16'0 0.0
2018-Jun-15 01:00N 52°06' E 004°16'0 0.0
2018-Jun-15 00:24N 52°06' E 004°16'0 0.0
2018-Jun-15 00:00N 52°06' E 004°16'0 0.0
2018-Jun-14 23:27N 52°06' E 004°16'0 0.0
2018-Jun-14 22:57N 52°06' E 004°16'0 0.0
2018-Jun-14 22:30N 52°06' E 004°16'0 0.0
2018-Jun-14 21:57N 52°06' E 004°16'0 0.0
2018-Jun-14 21:30N 52°06' E 004°16'0 0.0
2018-Jun-14 20:57N 52°06' E 004°16'0 0.0
2018-Jun-14 20:30N 52°06' E 004°16'0 0.0
2018-Jun-14 20:00N 52°06' E 004°16'0 0.0
2018-Jun-14 19:30N 52°06' E 004°16'0 0.0
2018-Jun-14 19:00N 52°06' E 004°16'0 0.0
2018-Jun-14 18:30N 52°06' E 004°16'0 0.0
2018-Jun-14 18:00N 52°06' E 004°16'0 0.0
2018-Jun-14 17:30N 52°06' E 004°16'0 0.0
2018-Jun-14 16:48N 52°06' E 004°16'0 0.0
2018-Jun-14 16:30N 52°06' E 004°16'0 0.0
2018-Jun-14 16:00N 52°06' E 004°16'0 0.0
2018-Jun-14 15:27N 52°06' E 004°16'0 0.0
2018-Jun-14 15:00N 52°06' E 004°16'0 0.0
2018-Jun-14 14:30N 52°06' E 004°16'0 0.0
2018-Jun-14 14:00N 52°06' E 004°16'0 0.0
2018-Jun-14 13:30N 52°06' E 004°16'0 0.0
2018-Jun-14 12:54N 52°06' E 004°16'0 0.0
2018-Jun-14 12:30N 52°06' E 004°16'0 0.0
2018-Jun-14 11:57N 52°06' E 004°16'0 0.0
2018-Jun-14 11:30N 52°06' E 004°16'0 0.0
2018-Jun-14 11:00N 52°06' E 004°16'0 0.0
2018-Jun-14 10:27N 52°06' E 004°16'0 0.0
2018-Jun-14 09:57N 52°06' E 004°16'0 0.0
2018-Jun-14 09:30N 52°06' E 004°16'0 0.0
2018-Jun-14 09:00N 52°06' E 004°16'0 0.0
2018-Jun-14 08:30N 52°06' E 004°16'0 0.0
2018-Jun-14 08:00N 52°06' E 004°16'0 0.0
2018-Jun-14 07:30N 52°06' E 004°16'0 0.0
2018-Jun-14 07:00N 52°06' E 004°16'0 0.0
2018-Jun-14 06:30N 52°06' E 004°16'0 0.0
2018-Jun-14 05:57N 52°06' E 004°16'0 0.0
2018-Jun-14 05:30N 52°06' E 004°16'0 0.0
2018-Jun-14 05:00N 52°06' E 004°16'0 0.0
2018-Jun-14 04:18N 52°06' E 004°16'0 0.0
2018-Jun-14 03:54N 52°06' E 004°16'0 0.0
2018-Jun-14 03:27N 52°06' E 004°16'0 0.0
2018-Jun-14 02:54N 52°06' E 004°16'0 0.0
2018-Jun-14 02:24N 52°06' E 004°16'0 0.0
2018-Jun-14 01:45N 52°06' E 004°16'0 0.0
2018-Jun-14 01:30N 52°06' E 004°16'0 0.0
2018-Jun-14 00:54N 52°06' E 004°16'0 0.0
2018-Jun-14 00:27N 52°06' E 004°16'0 0.0
2018-Jun-14 00:00N 52°06' E 004°16'0 0.0
2018-Jun-13 23:21N 52°06' E 004°16'0 0.0
2018-Jun-13 23:00N 52°06' E 004°16'0 0.0
2018-Jun-13 22:30N 52°06' E 004°16'0 0.0
2018-Jun-13 22:00N 52°06' E 004°16'0 0.0
2018-Jun-13 21:30N 52°06' E 004°16'0 0.0
2018-Jun-13 20:57N 52°06' E 004°16'0 0.0
2018-Jun-13 20:30N 52°06' E 004°16'0 0.0
2018-Jun-13 20:00N 52°06' E 004°16'0 0.0
2018-Jun-13 19:27N 52°06' E 004°16'0 0.0
2018-Jun-13 18:59N 52°06' E 004°16'2 4.5
2018-Jun-13 18:31N 52°05' E 004°13'2 4.1
2018-Jun-13 18:00N 52°04' E 004°10'3 6.3
2018-Jun-13 17:30N 52°03' E 004°06'3 6.5
2018-Jun-13 17:01N 52°01' E 004°01'3 5.8
2018-Jun-13 16:29N 51°59' E 003°57'4 7.7
2018-Jun-13 15:58N 51°56' E 003°52'8 7.7
2018-Jun-13 15:00N 51°51' E 003°43'28 8.2
2018-Jun-13 11:33N 51°31' E 003°12'1 7.2
2018-Jun-13 11:22N 51°30' E 003°11'3 7.2
2018-Jun-13 10:56N 51°27' E 003°08'3 6.8
2018-Jun-13 10:30N 51°25' E 003°05'3 5.8
2018-Jun-13 09:56N 51°23' E 003°01'3 4.8
2018-Jun-13 09:25N 51°21' E 002°58'2 5.0
2018-Jun-13 09:00N 51°20' E 002°56'2 4.3
2018-Jun-13 08:30N 51°18' E 002°54'2 4.3
2018-Jun-13 08:00N 51°16' E 002°51'2 4.3
2018-Jun-13 07:27N 51°15' E 002°48'2 4.3
2018-Jun-13 06:56N 51°14' E 002°45'2 4.1
2018-Jun-13 06:30N 51°12' E 002°44'2 3.5
2018-Jun-13 06:01N 51°11' E 002°43'2 4.2
2018-Jun-13 05:30N 51°09' E 002°44'0 0.8
2018-Jun-13 05:00N 51°08' E 002°45'0 0.0
2018-Jun-13 04:30N 51°08' E 002°45'0 0.0
2018-Jun-13 04:00N 51°08' E 002°45'0 0.0
2018-Jun-13 03:30N 51°08' E 002°45'0 0.0
2018-Jun-13 03:00N 51°08' E 002°45'0 0.0
2018-Jun-13 02:30N 51°08' E 002°45'0 0.0
2018-Jun-13 01:57N 51°08' E 002°45'0 0.0
2018-Jun-13 01:30N 51°08' E 002°45'0 0.0
2018-Jun-13 01:00N 51°08' E 002°45'0 0.0
2018-Jun-13 00:30N 51°08' E 002°45'0 0.0
2018-Jun-12 23:57N 51°08' E 002°45'0 0.0
2018-Jun-12 23:30N 51°08' E 002°45'0 0.0
2018-Jun-12 23:00N 51°08' E 002°45'0 0.0
2018-Jun-12 22:30N 51°08' E 002°45'0 0.0
2018-Jun-12 22:00N 51°08' E 002°45'0 0.0
2018-Jun-12 21:27N 51°08' E 002°45'0 0.0
2018-Jun-12 21:00N 51°08' E 002°45'0 0.0
2018-Jun-12 20:30N 51°08' E 002°45'0 0.0
2018-Jun-12 20:00N 51°08' E 002°45'0 0.0
2018-Jun-12 19:26N 51°08' E 002°45'0 0.0
2018-Jun-12 18:59N 51°08' E 002°45'0 0.0
2018-Jun-12 18:29N 51°08' E 002°45'0 0.0
2018-Jun-12 17:53N 51°08' E 002°45'0 0.0
2018-Jun-12 17:29N 51°08' E 002°45'0 0.0
2018-Jun-12 16:59N 51°08' E 002°45'0 0.0
2018-Jun-12 16:22N 51°08' E 002°45'0 0.0
2018-Jun-12 15:52N 51°08' E 002°45'0 0.0
2018-Jun-12 15:16N 51°08' E 002°45'0 0.0
2018-Jun-12 14:58N 51°08' E 002°45'0 0.0
2018-Jun-12 14:18N 51°08' E 002°45'0 0.0
2018-Jun-12 14:01N 51°08' E 002°45'0 0.0
2018-Jun-12 13:25N 51°08' E 002°45'0 0.0
2018-Jun-12 12:57N 51°08' E 002°45'0 0.0
2018-Jun-12 12:25N 51°08' E 002°45'0 0.0
2018-Jun-12 12:00N 51°08' E 002°45'0 0.0
2018-Jun-12 11:30N 51°08' E 002°45'0 0.0
2018-Jun-12 11:00N 51°08' E 002°45'0 0.0
2018-Jun-12 10:27N 51°08' E 002°45'0 0.0
2018-Jun-12 10:00N 51°08' E 002°45'0 0.0
2018-Jun-12 09:30N 51°08' E 002°45'0 0.0
2018-Jun-12 08:57N 51°08' E 002°45'0 0.0
2018-Jun-12 08:30N 51°08' E 002°45'0 0.0
2018-Jun-12 08:00N 51°08' E 002°45'0 0.0
2018-Jun-12 07:27N 51°08' E 002°45'0 0.0
2018-Jun-12 07:00N 51°08' E 002°45'0 0.0
2018-Jun-12 06:30N 51°08' E 002°45'0 0.0
2018-Jun-12 06:00N 51°08' E 002°45'0 0.0
2018-Jun-12 05:30N 51°08' E 002°45'0 0.0
2018-Jun-12 05:00N 51°08' E 002°45'0 0.0
2018-Jun-12 04:30N 51°08' E 002°45'0 0.0
2018-Jun-12 03:39N 51°08' E 002°45'0 0.0
2018-Jun-12 03:27N 51°08' E 002°45'0 0.0
2018-Jun-12 03:00N 51°08' E 002°45'0 0.0
2018-Jun-12 02:21N 51°08' E 002°45'0 0.0
2018-Jun-12 01:57N 51°08' E 002°45'0 0.0
2018-Jun-12 01:21N 51°08' E 002°45'0 0.0
2018-Jun-12 00:57N 51°08' E 002°45'0 0.0
2018-Jun-12 00:21N 51°08' E 002°45'0 0.0
2018-Jun-11 23:45N 51°08' E 002°45'0 0.0
2018-Jun-11 23:30N 51°08' E 002°45'0 0.0
2018-Jun-11 22:57N 51°08' E 002°45'0 0.0
2018-Jun-11 22:30N 51°08' E 002°45'0 0.0
2018-Jun-11 22:00N 51°08' E 002°45'0 0.0
2018-Jun-11 21:30N 51°08' E 002°45'0 0.0
2018-Jun-11 20:57N 51°08' E 002°45'0 0.0
2018-Jun-11 20:30N 51°08' E 002°45'0 0.0
2018-Jun-11 20:00N 51°08' E 002°45'0 0.0
2018-Jun-11 19:30N 51°08' E 002°45'0 0.0
2018-Jun-11 19:00N 51°08' E 002°45'0 0.0
2018-Jun-11 18:30N 51°08' E 002°45'0 0.0
2018-Jun-11 18:00N 51°08' E 002°45'0 0.0
2018-Jun-11 17:30N 51°08' E 002°45'0 0.0
2018-Jun-11 17:00N 51°08' E 002°45'0 0.0
2018-Jun-11 16:18N 51°08' E 002°45'0 0.0
2018-Jun-11 16:00N 51°08' E 002°45'0 0.0
2018-Jun-11 15:30N 51°08' E 002°45'0 0.0
2018-Jun-11 14:57N 51°08' E 002°45'0 0.0
2018-Jun-11 14:30N 51°08' E 002°45'0 0.0
2018-Jun-11 14:00N 51°08' E 002°45'0 0.0
2018-Jun-11 13:25N 51°08' E 002°45'0 0.0
2018-Jun-11 12:55N 51°08' E 002°45'0 0.0
2018-Jun-11 12:28N 51°08' E 002°45'0 0.0
2018-Jun-11 11:55N 51°08' E 002°45'0 0.0
2018-Jun-11 11:30N 51°08' E 002°45'0 0.0
2018-Jun-11 10:57N 51°08' E 002°45'0 0.0
2018-Jun-11 10:27N 51°08' E 002°45'0 0.0
2018-Jun-11 10:00N 51°08' E 002°45'0 0.0
2018-Jun-11 09:27N 51°08' E 002°45'0 0.0
2018-Jun-11 09:00N 51°08' E 002°45'0 0.0
2018-Jun-11 08:30N 51°08' E 002°45'0 0.0
2018-Jun-11 07:54N 51°08' E 002°45'0 0.0
2018-Jun-11 07:27N 51°08' E 002°45'0 0.0
2018-Jun-11 07:00N 51°08' E 002°45'0 0.0
2018-Jun-11 06:30N 51°08' E 002°45'0 0.0
2018-Jun-11 06:00N 51°08' E 002°45'0 0.0
2018-Jun-11 05:30N 51°08' E 002°45'0 0.0
2018-Jun-11 04:57N 51°08' E 002°45'0 0.0
2018-Jun-11 04:24N 51°08' E 002°45'0 0.0
2018-Jun-11 04:00N 51°08' E 002°45'0 0.0
2018-Jun-11 03:30N 51°08' E 002°45'0 0.0
2018-Jun-11 02:57N 51°08' E 002°45'0 0.0
2018-Jun-11 02:27N 51°08' E 002°45'0 0.0
2018-Jun-11 02:00N 51°08' E 002°45'0 0.0
2018-Jun-11 01:30N 51°08' E 002°45'0 0.0
2018-Jun-11 00:57N 51°08' E 002°45'0 0.0
2018-Jun-11 00:30N 51°08' E 002°45'0 0.0
2018-Jun-11 00:00N 51°08' E 002°45'0 0.0
2018-Jun-10 23:30N 51°08' E 002°45'0 0.0
2018-Jun-10 23:00N 51°08' E 002°45'0 0.0
2018-Jun-10 22:30N 51°08' E 002°45'0 0.0
2018-Jun-10 22:00N 51°08' E 002°45'0 0.0
2018-Jun-10 21:30N 51°08' E 002°45'0 0.0
2018-Jun-10 21:00N 51°08' E 002°45'0 0.0
2018-Jun-10 20:27N 51°08' E 002°45'0 0.0
2018-Jun-10 20:00N 51°08' E 002°45'0 0.4
2018-Jun-10 19:30N 51°09' E 002°44'3 5.2
2018-Jun-10 19:00N 51°10' E 002°41'3 5.7
2018-Jun-10 18:30N 51°09' E 002°36'3 5.1
2018-Jun-10 17:59N 51°08' E 002°32'3 4.8
2018-Jun-10 17:27N 51°06' E 002°30'2 4.6
2018-Jun-10 17:00N 51°05' E 002°27'2 4.8
2018-Jun-10 16:29N 51°04' E 002°23'2 4.8
2018-Jun-10 15:59N 51°04' E 002°19'3 4.9
2018-Jun-10 15:24N 51°04' E 002°15'2 4.9
2018-Jun-10 15:00N 51°03' E 002°12'3 4.8
2018-Jun-10 14:28N 51°03' E 002°08'5 4.9
2018-Jun-10 13:27N 51°02' E 001°60'91 4.7
2018-Jun-09 18:21N 49°60' E 000°17'2 6.1
2018-Jun-09 17:59N 49°59' E 000°13'3 6.5
2018-Jun-09 17:30N 49°59' E 000°08'3 6.5
2018-Jun-09 17:00N 49°58' E 000°03'3 6.5
2018-Jun-09 16:30N 49°57' W 000°01'3 6.3
2018-Jun-09 15:58N 49°56' W 000°07'3 6.0
2018-Jun-09 15:29N 49°56' W 000°11'5 5.4
2018-Jun-09 14:30N 49°56' W 000°19'3 5.1
2018-Jun-09 14:00N 49°55' W 000°23'2 4.9
2018-Jun-09 13:30N 49°55' W 000°27'2 4.7
2018-Jun-09 13:00N 49°55' W 000°31'2 4.5
2018-Jun-09 12:27N 49°55' W 000°34'4 3.9
2018-Jun-09 11:27N 49°54' W 000°41'4 2.6
2018-Jun-09 10:03N 49°54' W 000°46'0 2.0
2018-Jun-09 09:56N 49°54' W 000°46'4 2.5
2018-Jun-09 08:07N 49°53' W 000°53'1 3.2
2018-Jun-09 07:47N 49°53' W 000°55'3 3.4
2018-Jun-09 06:51N 49°52' W 000°60'1 3.8
2018-Jun-09 06:29N 49°51' W 001°02'2 4.0
2018-Jun-09 05:59N 49°50' W 001°05'2 4.8
2018-Jun-09 05:29N 49°49' W 001°08'3 5.3
2018-Jun-09 05:00N 49°48' W 001°11'3 6.0
2018-Jun-09 04:30N 49°47' W 001°16'3 6.8
2018-Jun-09 04:00N 49°46' W 001°21'4 7.4
2018-Jun-09 03:30N 49°45' W 001°26'4 7.7
2018-Jun-09 03:00N 49°43' W 001°31'4 7.3
2018-Jun-09 02:30N 49°41' W 001°36'2 4.1
2018-Jun-09 01:59N 49°39' W 001°37'0 0.0
2018-Jun-09 01:29N 49°39' W 001°37'0 0.0
2018-Jun-09 00:58N 49°39' W 001°37'0 0.0
2018-Jun-09 00:28N 49°39' W 001°37'0 0.0
2018-Jun-08 23:58N 49°39' W 001°37'0 0.0
2018-Jun-08 23:28N 49°39' W 001°37'0 0.0
2018-Jun-08 22:58N 49°39' W 001°37'0 0.0
2018-Jun-08 22:28N 49°39' W 001°37'0 0.0
2018-Jun-08 21:58N 49°39' W 001°37'0 0.0
2018-Jun-08 21:28N 49°39' W 001°37'0 0.0
2018-Jun-08 20:55N 49°39' W 001°37'0 0.0
2018-Jun-08 20:28N 49°39' W 001°37'0 0.0
2018-Jun-08 19:58N 49°39' W 001°37'0 0.0
2018-Jun-08 19:28N 49°39' W 001°37'0 0.0
2018-Jun-08 18:58N 49°39' W 001°37'0 0.0
2018-Jun-08 18:28N 49°39' W 001°37'0 0.0
2018-Jun-08 17:58N 49°39' W 001°37'0 0.0
2018-Jun-08 17:28N 49°39' W 001°37'0 0.0
2018-Jun-08 17:01N 49°39' W 001°37'0 0.0
2018-Jun-08 16:30N 49°39' W 001°37'0 0.0
2018-Jun-08 16:00N 49°39' W 001°37'0 0.0
2018-Jun-08 15:27N 49°39' W 001°37'0 0.0
2018-Jun-08 15:00N 49°39' W 001°37'0 0.0
2018-Jun-08 14:30N 49°39' W 001°37'0 0.0
2018-Jun-08 14:00N 49°39' W 001°37'0 0.0
2018-Jun-08 13:30N 49°39' W 001°37'0 0.0
2018-Jun-08 13:00N 49°39' W 001°37'0 0.0
2018-Jun-08 12:30N 49°39' W 001°37'0 0.0
2018-Jun-08 12:00N 49°39' W 001°37'0 0.0
2018-Jun-08 11:30N 49°39' W 001°37'0 0.0
2018-Jun-08 11:00N 49°39' W 001°37'0 0.0
2018-Jun-08 10:30N 49°39' W 001°37'0 0.0
2018-Jun-08 10:00N 49°39' W 001°37'0 0.0
2018-Jun-08 09:30N 49°39' W 001°37'0 0.0
2018-Jun-08 09:00N 49°39' W 001°37'0 0.0
2018-Jun-08 08:30N 49°39' W 001°37'0 0.0
2018-Jun-08 08:00N 49°39' W 001°37'0 0.0
2018-Jun-08 07:30N 49°39' W 001°37'0 0.0
2018-Jun-08 07:00N 49°39' W 001°37'0 0.0
2018-Jun-08 06:30N 49°39' W 001°37'0 0.0
2018-Jun-08 06:00N 49°39' W 001°37'0 0.0
2018-Jun-08 05:29N 49°39' W 001°37'0 0.0
2018-Jun-08 04:59N 49°39' W 001°37'0 0.0
2018-Jun-08 04:29N 49°39' W 001°37'0 0.0
2018-Jun-08 03:59N 49°39' W 001°37'0 0.0
2018-Jun-08 03:29N 49°39' W 001°37'0 0.0
2018-Jun-08 02:59N 49°39' W 001°37'0 0.0
2018-Jun-08 02:29N 49°39' W 001°37'0 0.0
2018-Jun-08 01:59N 49°39' W 001°37'0 0.0
2018-Jun-08 01:29N 49°39' W 001°37'0 0.0
2018-Jun-08 00:59N 49°39' W 001°37'0 0.0
2018-Jun-08 00:29N 49°39' W 001°37'0 0.0
2018-Jun-07 23:59N 49°39' W 001°37'0 0.0
2018-Jun-07 23:29N 49°39' W 001°37'0 0.0
2018-Jun-07 22:58N 49°39' W 001°37'0 0.0
2018-Jun-07 22:28N 49°39' W 001°37'0 0.0
2018-Jun-07 21:58N 49°39' W 001°37'0 0.0
2018-Jun-07 21:28N 49°39' W 001°37'0 0.0
2018-Jun-07 20:58N 49°39' W 001°37'0 0.0
2018-Jun-07 20:28N 49°39' W 001°37'0 0.0
2018-Jun-07 19:58N 49°39' W 001°37'0 0.0
2018-Jun-07 19:28N 49°39' W 001°37'0 0.0
2018-Jun-07 18:58N 49°39' W 001°37'0 0.0
2018-Jun-07 18:28N 49°39' W 001°37'0 0.0
2018-Jun-07 17:58N 49°39' W 001°37'0 0.0
2018-Jun-07 17:28N 49°39' W 001°37'0 0.0
2018-Jun-07 16:58N 49°39' W 001°37'0 0.0
2018-Jun-07 16:28N 49°39' W 001°37'0 0.0
2018-Jun-07 15:58N 49°39' W 001°37'0 0.0
2018-Jun-07 15:28N 49°39' W 001°37'0 0.0
2018-Jun-07 15:01N 49°39' W 001°37'2 3.0
2018-Jun-07 14:30N 49°40' W 001°38'3 6.0
2018-Jun-07 14:00N 49°42' W 001°42'4 7.0
2018-Jun-07 13:30N 49°43' W 001°47'3 7.0
2018-Jun-07 13:00N 49°44' W 001°52'  

Dump ship's entire track history